Overview Statistics Trail Chart Weather Telemetry Raw packets
 

This is the latest recevied weather packets stored in our database for station/object G0TQM-11. If no packets are shown the sender has not sent any weather packets the latest 10 day(s).

<< 3 4 5 6 7 8 9 >>
Time Temp. Humidity Pressure Rain* Wind** Luminosity Snow
1788552120 18.89° C 56% 1012.2 hPa - - - -
1788550920 18.89° C 55% 1011.8 hPa - - - -
1788549720 18.89° C 54% 1011.7 hPa - - - -
1788548520 18.89° C 54% 1011.6 hPa - - - -
1788547320 19.44° C 52% 1011.4 hPa - - - -
1788546120 20° C 50% 1011.3 hPa - - - -
1788544919 20.56° C 50% 1011.2 hPa - - - -
1788543719 21.11° C 49% 1011 hPa - - - -
1788542519 22.22° C 48% 1011.1 hPa - - - -
1788541343 22.22° C 48% 1011 hPa - - - -
1788540119 22.78° C 46% 1010.8 hPa - - - -
1788538919 22.22° C 47% 1010.6 hPa - - - -
1788537719 22.22° C 48% 1010.6 hPa - - - -
1788536518 22.22° C 46% 1010.5 hPa - - - -
1788535318 21.67° C 49% 1010.5 hPa - - - -
1788534118 21.11° C 51% 1010.4 hPa - - - -
1788532918 20.56° C 52% 1010.5 hPa - - - -
1788531718 20° C 52% 1010.3 hPa - - - -
1788530518 20.56° C 52% 1009.9 hPa - - - -
1788529318 21.67° C 49% 1009.8 hPa - - - -
1788528117 21.11° C 51% 1009.5 hPa - - - -
1788526917 21.11° C 52% 1009.5 hPa - - - -
1788525717 20.56° C 53% 1009.4 hPa - - - -
1788524517 20.56° C 53% 1009 hPa - - - -
1788523317 21.11° C 53% 1008.7 hPa - - - -

* Rain since midnight (hover to see other rain measurements)
** Current wind speed in m/s (hover to see current wind gust speed)